createdAt,value
2018-05-11T08:35:31.680Z,1014.61
2018-05-11T08:36:12.245Z,1014.65
2018-05-11T08:36:52.820Z,1014.64
2018-05-11T08:37:33.388Z,1014.65
2018-05-11T08:38:14.055Z,1014.65
2018-05-11T08:38:54.602Z,1014.66
2018-05-11T08:39:35.201Z,1014.67
2018-05-11T08:40:15.708Z,1014.63
2018-05-11T08:40:56.310Z,1014.63
2018-05-11T08:41:36.854Z,1014.65
2018-05-11T08:42:17.428Z,1014.65
2018-05-11T08:42:57.981Z,1014.69
2018-05-11T08:43:38.540Z,1014.72
2018-05-11T08:44:19.098Z,1014.69
2018-05-11T08:44:59.664Z,1014.71
2018-05-11T08:45:40.230Z,1014.73
2018-05-11T08:46:20.873Z,1014.76
2018-05-11T08:47:01.377Z,1014.76
2018-05-11T08:47:41.975Z,1014.78
2018-05-11T08:48:22.532Z,1014.75
2018-05-11T08:49:03.117Z,1014.77
2018-05-11T08:49:43.701Z,1014.74
2018-05-11T08:50:24.260Z,1014.8
2018-05-11T08:51:04.816Z,1014.78
2018-05-11T08:51:45.442Z,1014.77
2018-05-11T08:52:26.099Z,1014.75
2018-05-11T08:53:06.659Z,1014.8
2018-05-11T08:53:47.389Z,1014.84
2018-05-11T08:54:28.183Z,1014.83
2018-05-11T08:55:08.743Z,1014.83
2018-05-11T08:55:49.443Z,1014.78
2018-05-11T08:56:30.031Z,1014.77
2018-05-11T08:57:10.627Z,1014.81
2018-05-11T08:57:51.116Z,1014.8
2018-05-11T08:58:31.679Z,1014.85
2018-05-11T08:59:12.228Z,1014.78
2018-05-11T08:59:52.795Z,1014.81
2018-05-11T09:00:33.345Z,1014.85
2018-05-11T09:01:13.941Z,1014.81
2018-05-11T09:01:54.499Z,1014.82
2018-05-11T09:02:35.085Z,1014.82
2018-05-11T09:03:15.743Z,1014.85
2018-05-11T09:03:56.328Z,1014.82
2018-05-11T09:04:36.882Z,1014.87
2018-05-11T09:05:17.429Z,1014.87
2018-05-11T09:05:57.986Z,1014.88
2018-05-11T09:06:38.551Z,1014.89
2018-05-11T09:07:19.131Z,1014.89
2018-05-11T09:07:59.682Z,1014.89
2018-05-11T09:08:40.326Z,1014.86
2018-05-11T09:09:20.868Z,1014.87
2018-05-11T09:10:01.454Z,1014.89
2018-05-11T09:10:42.012Z,1014.85
2018-05-11T09:11:22.587Z,1014.85
2018-05-11T09:12:03.174Z,1014.88
2018-05-11T09:12:43.744Z,1014.92
2018-05-11T09:13:24.302Z,1014.9
2018-05-11T09:14:04.853Z,1014.93
2018-05-11T09:14:45.453Z,1014.9
2018-05-11T09:15:26.107Z,1014.91
2018-05-11T09:16:06.652Z,1014.89
2018-05-11T09:16:47.192Z,1014.9
2018-05-11T09:17:27.774Z,1014.89
2018-05-11T09:18:08.372Z,1014.91
2018-05-11T09:18:48.954Z,1014.9
2018-05-11T09:19:29.507Z,1014.9
2018-05-11T09:20:10.118Z,1014.91
2018-05-11T09:20:50.706Z,1014.9
2018-05-11T09:21:31.333Z,1014.97
2018-05-11T09:22:11.837Z,1014.97
2018-05-11T09:22:52.419Z,1014.96
2018-05-11T09:23:33.056Z,1014.95
2018-05-11T09:24:13.608Z,1014.95
2018-05-11T09:24:54.242Z,1014.99
2018-05-11T09:25:34.791Z,1014.96
2018-05-11T09:26:15.368Z,1014.99
2018-05-11T09:26:55.912Z,1014.97
2018-05-11T09:27:36.458Z,1014.97
2018-05-11T09:28:17.031Z,1014.98
2018-05-11T09:28:57.579Z,1015.02
2018-05-11T09:29:38.144Z,1015.03
2018-05-11T09:30:18.713Z,1015
2018-05-11T09:30:59.277Z,1015.01
2018-05-11T09:31:39.829Z,1015.01
2018-05-11T09:32:20.413Z,1015.02
2018-05-11T09:33:00.977Z,1014.98
2018-05-11T09:33:41.542Z,1014.99
2018-05-11T09:34:22.146Z,1015.01
2018-05-11T09:35:02.727Z,1015.01
2018-05-11T09:35:43.288Z,1015
2018-05-11T09:36:23.865Z,1015.02
2018-05-11T09:37:04.441Z,1015.02
2018-05-11T09:37:45.125Z,1015.03
2018-05-11T09:38:25.685Z,1015.03
2018-05-11T09:39:06.250Z,1014.99
2018-05-11T09:39:46.909Z,1015.01
2018-05-11T09:40:27.380Z,1015
2018-05-11T09:41:08.188Z,1015.05
2018-05-11T09:41:48.750Z,1015.01
2018-05-11T09:42:29.321Z,1015.06
2018-05-11T09:43:09.884Z,1015.03
2018-05-11T09:43:50.482Z,1015.07
2018-05-11T09:44:31.055Z,1015.03
2018-05-11T09:45:11.613Z,1015.01
2018-05-11T09:45:52.162Z,1015.11
2018-05-11T09:46:32.849Z,1015.05
2018-05-11T09:47:13.475Z,1015.04
2018-05-11T09:47:54.054Z,1015.05
2018-05-11T09:48:34.629Z,1015.07
2018-05-11T09:49:15.221Z,1015.08
2018-05-11T09:49:55.759Z,1015.07
2018-05-11T09:50:36.371Z,1015.09
2018-05-11T09:51:16.934Z,1015.1
2018-05-11T09:51:57.536Z,1015.11
2018-05-11T09:52:38.070Z,1015.09
2018-05-11T09:53:18.611Z,1015.06
2018-05-11T09:53:59.200Z,1015.14
2018-05-11T09:54:39.779Z,1015.11
2018-05-11T09:55:20.341Z,1015.16
2018-05-11T09:56:00.925Z,1015.15
2018-05-11T09:56:41.474Z,1015.14
2018-05-11T09:57:22.059Z,1015.17
2018-05-11T09:58:02.621Z,1015.14
2018-05-11T09:58:43.171Z,1015.14
2018-05-11T09:59:23.759Z,1015.15
2018-05-11T10:00:04.331Z,1015.18
2018-05-11T10:00:44.910Z,1015.17
2018-05-11T10:01:25.581Z,1015.2
2018-05-11T10:02:06.228Z,1015.21
2018-05-11T10:02:46.773Z,1015.2
2018-05-11T10:03:27.322Z,1015.19
2018-05-11T10:04:07.887Z,1015.19
2018-05-11T10:04:48.468Z,1015.18
2018-05-11T10:05:28.988Z,1015.18
2018-05-11T10:06:09.555Z,1015.19
2018-05-11T10:06:50.088Z,1015.17
2018-05-11T10:07:30.639Z,1015.14
2018-05-11T10:08:11.190Z,1015.16
2018-05-11T10:08:51.755Z,1015.17
2018-05-11T10:09:32.340Z,1015.18
2018-05-11T10:10:12.875Z,1015.15
2018-05-11T10:10:53.442Z,1015.16
2018-05-11T10:11:34.013Z,1015.16
2018-05-11T10:12:14.623Z,1015.2
2018-05-11T10:12:55.248Z,1015.21
2018-05-11T10:13:35.808Z,1015.22
2018-05-11T10:14:16.379Z,1015.26
2018-05-11T10:14:56.937Z,1015.26
2018-05-11T10:15:37.504Z,1015.26
2018-05-11T10:16:18.128Z,1015.27
2018-05-11T10:16:58.687Z,1015.28
2018-05-11T10:17:39.261Z,1015.22
2018-05-11T10:18:19.834Z,1015.26
2018-05-11T10:19:00.387Z,1015.26
2018-05-11T10:19:40.965Z,1015.25
2018-05-11T10:20:21.499Z,1015.23
2018-05-11T10:21:02.063Z,1015.22
2018-05-11T10:21:42.603Z,1015.2
2018-05-11T10:22:23.196Z,1015.23
2018-05-11T10:23:03.771Z,1015.22
2018-05-11T10:23:44.334Z,1015.22
2018-05-11T10:24:24.901Z,1015.21
2018-05-11T10:25:05.484Z,1015.21
2018-05-11T10:25:46.057Z,1015.2
2018-05-11T10:26:26.607Z,1015.22
2018-05-11T10:27:07.162Z,1015.21
2018-05-11T10:27:47.721Z,1015.2
2018-05-11T10:28:28.269Z,1015.2
2018-05-11T10:29:08.868Z,1015.14
2018-05-11T10:29:49.361Z,1015.16
2018-05-11T10:30:29.907Z,1015.17
2018-05-11T10:31:10.467Z,1015.16
2018-05-11T10:31:51.071Z,1015.21
2018-05-11T10:32:31.636Z,1015.21
2018-05-11T10:33:12.208Z,1015.21
2018-05-11T10:33:52.804Z,1015.22
2018-05-11T10:34:33.474Z,1015.25
2018-05-11T10:35:13.983Z,1015.23
2018-05-11T10:35:54.544Z,1015.24
2018-05-11T10:36:35.160Z,1015.25
2018-05-11T10:37:15.735Z,1015.25
2018-05-11T10:37:56.311Z,1015.26
2018-05-11T10:38:36.875Z,1015.26
2018-05-11T10:39:17.429Z,1015.29
2018-05-11T10:39:58.066Z,1015.3
2018-05-11T10:40:38.571Z,1015.31
2018-05-11T10:41:19.106Z,1015.3
2018-05-11T10:42:00.059Z,1015.3
2018-05-11T10:42:40.612Z,1015.32
2018-05-11T10:43:21.222Z,1015.3
2018-05-11T10:44:01.821Z,1015.34
2018-05-11T10:44:42.406Z,1015.35
2018-05-11T10:45:22.944Z,1015.33
2018-05-11T10:46:03.524Z,1015.29
2018-05-11T10:46:44.087Z,1015.36
2018-05-11T10:47:24.656Z,1015.29
2018-05-11T10:48:05.228Z,1015.32
2018-05-11T10:48:45.823Z,1015.33
2018-05-11T10:49:26.352Z,1015.34
2018-05-11T10:50:06.885Z,1015.37
2018-05-11T10:50:47.455Z,1015.37
2018-05-11T10:51:28.109Z,1015.38
2018-05-11T10:52:08.696Z,1015.42
2018-05-11T10:52:49.261Z,1015.4
2018-05-11T10:53:29.825Z,1015.43
2018-05-11T10:54:10.448Z,1015.39
2018-05-11T10:54:51.028Z,1015.39
2018-05-11T10:55:31.626Z,1015.4
2018-05-11T10:56:12.194Z,1015.37
2018-05-11T10:56:52.799Z,1015.37
2018-05-11T10:57:33.365Z,1015.37
2018-05-11T10:58:13.944Z,1015.4
2018-05-11T10:58:54.498Z,1015.43
2018-05-11T10:59:35.064Z,1015.41
2018-05-11T11:00:15.638Z,1015.4
2018-05-11T11:00:56.248Z,1015.38
2018-05-11T11:01:36.814Z,1015.43
2018-05-11T11:02:17.390Z,1015.4
2018-05-11T11:02:57.922Z,1015.43
2018-05-11T11:03:38.494Z,1015.4
2018-05-11T11:04:19.062Z,1015.39
2018-05-11T11:04:59.617Z,1015.41
2018-05-11T11:05:40.185Z,1015.42
2018-05-11T11:06:20.761Z,1015.41
2018-05-11T11:07:01.337Z,1015.44
2018-05-11T11:07:41.933Z,1015.45
2018-05-11T11:08:22.483Z,1015.49
2018-05-11T11:09:03.057Z,1015.43
2018-05-11T11:09:43.639Z,1015.42
2018-05-11T11:10:24.198Z,1015.43
2018-05-11T11:11:04.755Z,1015.47
2018-05-11T11:11:45.325Z,1015.46
2018-05-11T11:12:25.890Z,1015.42
2018-05-11T11:13:06.463Z,1015.41
2018-05-11T11:13:47.024Z,1015.39
2018-05-11T11:14:27.598Z,1015.38
2018-05-11T11:15:08.147Z,1015.42
2018-05-11T11:15:48.697Z,1015.36
2018-05-11T11:16:29.249Z,1015.4
2018-05-11T11:17:09.808Z,1015.38
2018-05-11T11:17:50.366Z,1015.36
2018-05-11T11:18:30.928Z,1015.35
2018-05-11T11:19:11.485Z,1015.38
2018-05-11T11:19:52.024Z,1015.34
2018-05-11T11:20:32.573Z,1015.36
2018-05-11T11:21:13.122Z,1015.33
2018-05-11T11:21:53.688Z,1015.36
2018-05-11T11:22:34.247Z,1015.32
2018-05-11T11:23:14.808Z,1015.35
2018-05-11T11:23:55.436Z,1015.3
2018-05-11T11:24:35.998Z,1015.33
2018-05-11T11:25:16.566Z,1015.33
2018-05-11T11:25:57.236Z,1015.32
2018-05-11T11:26:37.703Z,1015.35
2018-05-11T11:27:18.275Z,1015.34
2018-05-11T11:27:58.822Z,1015.32
2018-05-11T11:28:39.395Z,1015.33
2018-05-11T11:29:19.962Z,1015.33
2018-05-11T11:30:00.526Z,1015.3
2018-05-11T11:30:41.103Z,1015.31
2018-05-11T11:31:21.686Z,1015.31
2018-05-11T11:32:02.241Z,1015.33
2018-05-11T11:32:42.807Z,1015.3
2018-05-11T11:33:23.384Z,1015.32
2018-05-11T11:34:03.949Z,1015.32
2018-05-11T11:34:44.638Z,1015.31
2018-05-11T11:35:25.130Z,1015.28
2018-05-11T11:36:05.673Z,1015.3
2018-05-11T11:36:46.248Z,1015.29
2018-05-11T11:37:26.795Z,1015.3
2018-05-11T11:38:07.370Z,1015.3
2018-05-11T11:38:47.934Z,1015.28
2018-05-11T11:39:28.501Z,1015.29
2018-05-11T11:40:09.079Z,1015.28
2018-05-11T11:40:49.643Z,1015.25
2018-05-11T11:41:30.192Z,1015.24
2018-05-11T11:42:10.863Z,1015.25
2018-05-11T11:42:51.335Z,1015.27
2018-05-11T11:43:31.907Z,1015.28
2018-05-11T11:44:12.473Z,1015.27
2018-05-11T11:44:53.118Z,1015.26
2018-05-11T11:45:33.684Z,1015.25
2018-05-11T11:46:14.230Z,1015.25
2018-05-11T11:46:54.805Z,1015.27
2018-05-11T11:47:35.452Z,1015.29
2018-05-11T11:48:15.907Z,1015.24
2018-05-11T11:48:56.452Z,1015.31
2018-05-11T11:49:37.065Z,1015.29
2018-05-11T11:50:17.630Z,1015.31
2018-05-11T11:50:58.195Z,1015.3
2018-05-11T11:51:38.781Z,1015.27
2018-05-11T11:52:19.333Z,1015.25
2018-05-11T11:52:59.919Z,1015.29
2018-05-11T11:53:40.502Z,1015.3
2018-05-11T11:54:21.055Z,1015.27
2018-05-11T11:55:01.620Z,1015.3
2018-05-11T11:55:42.189Z,1015.28
2018-05-11T11:56:22.849Z,1015.32
2018-05-11T11:57:03.337Z,1015.32
2018-05-11T11:57:43.917Z,1015.33
2018-05-11T11:58:24.502Z,1015.32
2018-05-11T11:59:05.052Z,1015.31
2018-05-11T11:59:45.664Z,1015.34
2018-05-11T12:00:26.179Z,1015.28
2018-05-11T12:01:06.783Z,1015.3
2018-05-11T12:01:47.385Z,1015.3
2018-05-11T12:02:28.226Z,1015.3
2018-05-11T12:03:08.462Z,1015.3
2018-05-11T12:03:49.007Z,1015.31
2018-05-11T12:04:29.679Z,1015.31
2018-05-11T12:05:10.423Z,1015.27
2018-05-11T12:05:51.206Z,1015.31
2018-05-11T12:06:31.768Z,1015.26
2018-05-11T12:07:12.476Z,1015.32
2018-05-11T12:07:53.228Z,1015.28
2018-05-11T12:08:33.729Z,1015.29
2018-05-11T12:09:14.333Z,1015.27
2018-05-11T12:09:54.883Z,1015.31
2018-05-11T12:10:35.479Z,1015.29
2018-05-11T12:11:16.174Z,1015.31
2018-05-11T12:11:56.781Z,1015.29
2018-05-11T12:12:37.380Z,1015.31
2018-05-11T12:13:17.975Z,1015.25
2018-05-11T12:13:58.612Z,1015.25
2018-05-11T12:14:39.164Z,1015.27
2018-05-11T12:15:19.783Z,1015.31
2018-05-11T12:16:00.373Z,1015.27
2018-05-11T12:16:41.002Z,1015.27
2018-05-11T12:17:21.556Z,1015.29
2018-05-11T12:18:02.227Z,1015.26
2018-05-11T12:18:42.802Z,1015.25
2018-05-11T12:19:23.389Z,1015.26
2018-05-11T12:20:03.943Z,1015.24
2018-05-11T12:20:44.500Z,1015.21
2018-05-11T12:21:25.122Z,1015.29
2018-05-11T12:22:05.680Z,1015.24
2018-05-11T12:22:46.277Z,1015.21
2018-05-11T12:23:26.902Z,1015.26
2018-05-11T12:24:07.466Z,1015.26
2018-05-11T12:24:48.021Z,1015.28
2018-05-11T12:25:28.571Z,1015.24
2018-05-11T12:26:09.160Z,1015.27
2018-05-11T12:26:49.730Z,1015.27
2018-05-11T12:27:30.307Z,1015.24
2018-05-11T12:28:10.886Z,1015.25
2018-05-11T12:28:51.444Z,1015.26
2018-05-11T12:29:31.998Z,1015.28
2018-05-11T12:30:12.598Z,1015.24
2018-05-11T12:30:53.162Z,1015.27
2018-05-11T12:31:33.757Z,1015.27
2018-05-11T12:32:14.346Z,1015.28
2018-05-11T12:32:54.873Z,1015.26
2018-05-11T12:33:35.431Z,1015.28
2018-05-11T12:34:16.143Z,1015.3
2018-05-11T12:34:57.205Z,1015.28
2018-05-11T12:35:38.202Z,1015.27
2018-05-11T12:36:19.172Z,1015.28
2018-05-11T12:36:59.854Z,1015.28
2018-05-11T12:37:40.395Z,1015.25
2018-05-11T12:38:21.163Z,1015.25
2018-05-11T12:39:01.793Z,1015.26
2018-05-11T12:39:42.482Z,1015.23
2018-05-11T12:40:23.334Z,1015.27
2018-05-11T12:41:04.045Z,1015.25
2018-05-11T12:41:44.788Z,1015.22
2018-05-11T12:42:25.377Z,1015.23
2018-05-11T12:43:06.128Z,1015.26
2018-05-11T12:43:46.999Z,1015.26
2018-05-11T12:44:27.567Z,1015.26
2018-05-11T12:45:08.135Z,1015.27
2018-05-11T12:45:48.767Z,1015.27
2018-05-11T12:46:29.325Z,1015.26
2018-05-11T12:47:09.890Z,1015.27
2018-05-11T12:47:50.458Z,1015.25
2018-05-11T12:48:31.118Z,1015.22
2018-05-11T12:49:11.830Z,1015.25
2018-05-11T12:49:52.365Z,1015.25
2018-05-11T12:50:33.038Z,1015.25
2018-05-11T12:51:13.576Z,1015.24
2018-05-11T12:51:54.148Z,1015.24
2018-05-11T12:52:35.362Z,1015.2
2018-05-11T12:53:16.201Z,1015.2
2018-05-11T12:53:56.930Z,1015.24
2018-05-11T12:54:37.860Z,1015.22
2018-05-11T12:55:18.524Z,1015.3
2018-05-11T12:55:59.063Z,1015.24
2018-05-11T12:56:39.708Z,1015.24
2018-05-11T12:57:20.521Z,1015.23
2018-05-11T12:58:01.155Z,1015.26
2018-05-11T12:58:41.698Z,1015.23
2018-05-11T12:59:22.227Z,1015.25
2018-05-11T13:00:02.777Z,1015.25
2018-05-11T13:00:43.361Z,1015.28
2018-05-11T13:01:23.930Z,1015.27
2018-05-11T13:02:04.495Z,1015.26
2018-05-11T13:02:45.055Z,1015.26
2018-05-11T13:03:25.645Z,1015.23
2018-05-11T13:04:06.228Z,1015.24
2018-05-11T13:04:46.837Z,1015.23
2018-05-11T13:05:27.444Z,1015.27
2018-05-11T13:06:07.994Z,1015.2
2018-05-11T13:06:48.562Z,1015.19
2018-05-11T13:07:29.121Z,1015.21
2018-05-11T13:08:09.672Z,1015.19
2018-05-11T13:08:50.217Z,1015.19
2018-05-11T13:09:30.773Z,1015.2
2018-05-11T13:10:11.394Z,1015.2
2018-05-11T13:10:51.948Z,1015.2
2018-05-11T13:11:32.502Z,1015.21
2018-05-11T13:12:13.050Z,1015.21
2018-05-11T13:12:53.740Z,1015.19
2018-05-11T13:13:34.197Z,1015.19
2018-05-11T13:14:14.753Z,1015.17
2018-05-11T13:14:55.283Z,1015.16
2018-05-11T13:15:35.856Z,1015.18
2018-05-11T13:16:16.502Z,1015.13
2018-05-11T13:16:57.054Z,1015.11
2018-05-11T13:17:37.627Z,1015.14
2018-05-11T13:18:18.481Z,1015.14
2018-05-11T13:18:59.035Z,1015.15
2018-05-11T13:19:39.659Z,1015.12
2018-05-11T13:20:20.223Z,1015.13
2018-05-11T13:21:00.804Z,1015.11
2018-05-11T13:21:41.352Z,1015.12
2018-05-11T13:22:21.931Z,1015.11
2018-05-11T13:23:02.491Z,1015.13
2018-05-11T13:23:43.056Z,1015.11
2018-05-11T13:24:23.953Z,1015.09
2018-05-11T13:25:05.568Z,1015.1
2018-05-11T13:25:46.140Z,1015.11
2018-05-11T13:26:26.697Z,1015.13
2018-05-11T13:27:07.252Z,1015.13
2018-05-11T13:27:47.916Z,1015.09
2018-05-11T13:28:28.503Z,1015.13
2018-05-11T13:29:09.121Z,1015.09
2018-05-11T13:29:49.701Z,1015.13
2018-05-11T13:30:30.349Z,1015.11
2018-05-11T13:31:10.836Z,1015.09
2018-05-11T13:31:51.408Z,1015.14
2018-05-11T13:32:31.996Z,1015.12
2018-05-11T13:33:12.561Z,1015.11
2018-05-11T13:33:53.110Z,1015.1
2018-05-11T13:34:33.687Z,1015.09
2018-05-11T13:35:14.248Z,1015.13
2018-05-11T13:35:54.831Z,1015.13
2018-05-11T13:36:35.477Z,1015.13
2018-05-11T13:37:16.267Z,1015.14
2018-05-11T13:37:56.845Z,1015.15
2018-05-11T13:38:37.396Z,1015.14
2018-05-11T13:39:17.978Z,1015.11
2018-05-11T13:39:58.560Z,1015.12
2018-05-11T13:40:39.127Z,1015.11
2018-05-11T13:41:19.671Z,1015.1
2018-05-11T13:42:00.243Z,1015.14
2018-05-11T13:42:40.810Z,1015.11
2018-05-11T13:43:21.396Z,1015.1
2018-05-11T13:44:01.954Z,1015.1
2018-05-11T13:44:42.503Z,1015.14
2018-05-11T13:45:23.087Z,1015.16
2018-05-11T13:46:03.652Z,1015.14
2018-05-11T13:46:44.237Z,1015.07
2018-05-11T13:47:24.800Z,1015.15
2018-05-11T13:48:05.380Z,1015.14
2018-05-11T13:48:45.972Z,1015.1
2018-05-11T13:49:26.543Z,1015.14
2018-05-11T13:50:07.107Z,1015.14
2018-05-11T13:50:47.668Z,1015.14
2018-05-11T13:51:28.220Z,1015.11
2018-05-11T13:52:08.808Z,1015.14
2018-05-11T13:52:49.367Z,1015.12
2018-05-11T13:53:29.978Z,1015.11
2018-05-11T13:54:10.515Z,1015.11
2018-05-11T13:54:51.085Z,1015.09
2018-05-11T13:55:31.637Z,1015.11
2018-05-11T13:56:12.282Z,1015.1
2018-05-11T13:56:52.759Z,1015.1
2018-05-11T13:57:33.307Z,1015.07
2018-05-11T13:58:13.865Z,1015.04
2018-05-11T13:58:54.432Z,1015.06
2018-05-11T13:59:35.006Z,1015.07
2018-05-11T14:00:15.572Z,1015.08
2018-05-11T14:00:56.122Z,1015.05
2018-05-11T14:01:36.698Z,1015.03
2018-05-11T14:02:17.269Z,1015.02
2018-05-11T14:02:57.868Z,1015.06
2018-05-11T14:03:38.481Z,1015.01
2018-05-11T14:04:18.965Z,1015.01
2018-05-11T14:04:59.540Z,1015.03
2018-05-11T14:05:40.112Z,1014.99
2018-05-11T14:06:20.674Z,1015.02
2018-05-11T14:07:01.269Z,1014.99
2018-05-11T14:07:41.848Z,1014.99
2018-05-11T14:08:22.416Z,1014.99
2018-05-11T14:09:02.977Z,1015.04
2018-05-11T14:09:43.533Z,1015.01
2018-05-11T14:10:24.222Z,1015.03
2018-05-11T14:11:04.715Z,1014.98
2018-05-11T14:11:45.277Z,1014.94
2018-05-11T14:12:26.020Z,1014.98
2018-05-11T14:13:06.595Z,1014.98
2018-05-11T14:13:47.144Z,1014.95
2018-05-11T14:14:27.696Z,1014.89
2018-05-11T14:15:08.248Z,1014.93
2018-05-11T14:15:48.798Z,1014.87
2018-05-11T14:16:29.380Z,1014.87
2018-05-11T14:17:09.956Z,1014.87
2018-05-11T14:17:50.605Z,1014.9
2018-05-11T14:18:31.074Z,1014.88
2018-05-11T14:19:11.639Z,1014.91
2018-05-11T14:19:52.189Z,1014.9
2018-05-11T14:20:32.756Z,1014.88
2018-05-11T14:21:13.303Z,1014.87
2018-05-11T14:21:53.856Z,1014.88
2018-05-11T14:22:34.411Z,1014.88
2018-05-11T14:23:14.993Z,1014.89
2018-05-11T14:23:55.539Z,1014.89
2018-05-11T14:24:36.118Z,1014.87
2018-05-11T14:25:16.694Z,1014.88
2018-05-11T14:25:57.246Z,1014.85
2018-05-11T14:26:37.828Z,1014.88
2018-05-11T14:27:18.443Z,1014.85
2018-05-11T14:27:59.031Z,1014.88
2018-05-11T14:28:39.620Z,1014.86
2018-05-11T14:29:20.198Z,1014.83
2018-05-11T14:30:00.773Z,1014.84
2018-05-11T14:30:41.319Z,1014.81
2018-05-11T14:31:21.875Z,1014.82
2018-05-11T14:32:02.510Z,1014.83
2018-05-11T14:32:43.007Z,1014.87
2018-05-11T14:33:23.568Z,1014.81
2018-05-11T14:34:04.145Z,1014.8
2018-05-11T14:34:44.697Z,1014.83
2018-05-11T14:35:25.250Z,1014.83
2018-05-11T14:36:05.822Z,1014.86
2018-05-11T14:36:46.403Z,1014.8
2018-05-11T14:37:26.966Z,1014.76
2018-05-11T14:38:07.541Z,1014.77
2018-05-11T14:38:48.117Z,1014.76
2018-05-11T14:39:28.681Z,1014.74
2018-05-11T14:40:09.217Z,1014.73
2018-05-11T14:40:49.790Z,1014.72
2018-05-11T14:41:30.335Z,1014.71
2018-05-11T14:42:10.887Z,1014.75
2018-05-11T14:42:51.449Z,1014.71
2018-05-11T14:43:32.010Z,1014.72
2018-05-11T14:44:12.573Z,1014.72
2018-05-11T14:44:53.136Z,1014.72
2018-05-11T14:45:33.697Z,1014.68
2018-05-11T14:46:14.262Z,1014.69
2018-05-11T14:46:54.839Z,1014.7
2018-05-11T14:47:35.408Z,1014.73
2018-05-11T14:48:15.961Z,1014.72
2018-05-11T14:48:56.534Z,1014.74
2018-05-11T14:49:37.154Z,1014.73
2018-05-11T14:50:17.678Z,1014.7
2018-05-11T14:50:58.244Z,1014.73
2018-05-11T14:51:38.806Z,1014.71
2018-05-11T14:52:19.387Z,1014.73
2018-05-11T14:53:00.006Z,1014.72
2018-05-11T14:53:40.582Z,1014.72
2018-05-11T14:54:21.140Z,1014.72
2018-05-11T14:55:01.724Z,1014.74
2018-05-11T14:55:42.288Z,1014.74
2018-05-11T14:56:22.841Z,1014.72
2018-05-11T14:57:03.428Z,1014.76
2018-05-11T14:57:43.957Z,1014.7
2018-05-11T14:58:24.543Z,1014.72
2018-05-11T14:59:05.059Z,1014.73
2018-05-11T14:59:45.663Z,1014.71
2018-05-11T15:00:26.246Z,1014.69
2018-05-11T15:01:06.818Z,1014.72
2018-05-11T15:01:47.353Z,1014.72
2018-05-11T15:02:27.904Z,1014.7
2018-05-11T15:03:08.457Z,1014.69
2018-05-11T15:03:49.030Z,1014.71
2018-05-11T15:04:29.602Z,1014.71
2018-05-11T15:05:10.208Z,1014.71
2018-05-11T15:05:50.783Z,1014.68
2018-05-11T15:06:31.378Z,1014.68
2018-05-11T15:07:11.939Z,1014.64
2018-05-11T15:07:52.516Z,1014.62
2018-05-11T15:08:33.078Z,1014.64
2018-05-11T15:09:13.643Z,1014.64
2018-05-11T15:09:54.193Z,1014.63
2018-05-11T15:10:34.744Z,1014.63
2018-05-11T15:11:15.381Z,1014.6
2018-05-11T15:11:55.892Z,1014.61
2018-05-11T15:12:36.461Z,1014.57
2018-05-11T15:13:17.039Z,1014.56
2018-05-11T15:13:57.607Z,1014.58
2018-05-11T15:14:38.170Z,1014.56
2018-05-11T15:15:18.746Z,1014.53
2018-05-11T15:15:59.309Z,1014.52
2018-05-11T15:16:39.892Z,1014.54
2018-05-11T15:17:20.468Z,1014.5
2018-05-11T15:18:01.057Z,1014.51
2018-05-11T15:18:41.631Z,1014.47
2018-05-11T15:19:22.189Z,1014.47
2018-05-11T15:20:02.753Z,1014.45
2018-05-11T15:20:43.325Z,1014.49
2018-05-11T15:21:23.924Z,1014.46
2018-05-11T15:22:04.488Z,1014.47
2018-05-11T15:22:45.041Z,1014.44
2018-05-11T15:23:25.592Z,1014.44
2018-05-11T15:24:06.170Z,1014.42
2018-05-11T15:24:46.740Z,1014.43
2018-05-11T15:25:27.292Z,1014.41
2018-05-11T15:26:07.862Z,1014.38
2018-05-11T15:26:48.419Z,1014.39
2018-05-11T15:27:28.976Z,1014.4
2018-05-11T15:28:09.531Z,1014.37
2018-05-11T15:28:50.097Z,1014.38
2018-05-11T15:29:30.712Z,1014.33
2018-05-11T15:30:11.294Z,1014.32
2018-05-11T15:30:51.878Z,1014.32
2018-05-11T15:31:32.429Z,1014.32
2018-05-11T15:32:12.978Z,1014.31
2018-05-11T15:32:53.515Z,1014.33
2018-05-11T15:33:34.139Z,1014.33
2018-05-11T15:34:14.703Z,1014.36
2018-05-11T15:34:55.269Z,1014.33
2018-05-11T15:35:35.837Z,1014.34
2018-05-11T15:36:16.373Z,1014.3
2018-05-11T15:36:56.955Z,1014.31
2018-05-11T15:37:37.512Z,1014.36
2018-05-11T15:38:18.070Z,1014.37
2018-05-11T15:38:58.650Z,1014.35
2018-05-11T15:39:39.235Z,1014.34
2018-05-11T15:40:19.823Z,1014.36
2018-05-11T15:41:00.388Z,1014.36
2018-05-11T15:41:40.963Z,1014.33
2018-05-11T15:42:21.524Z,1014.35
2018-05-11T15:43:02.060Z,1014.35
2018-05-11T15:43:42.626Z,1014.33
2018-05-11T15:44:23.182Z,1014.35
2018-05-11T15:45:03.829Z,1014.31
2018-05-11T15:45:44.376Z,1014.32
2018-05-11T15:46:24.948Z,1014.35
2018-05-11T15:47:05.512Z,1014.35
2018-05-11T15:47:46.082Z,1014.39
2018-05-11T15:48:26.658Z,1014.34
2018-05-11T15:49:07.218Z,1014.37
2018-05-11T15:49:47.781Z,1014.39
2018-05-11T15:50:28.348Z,1014.34
2018-05-11T15:51:08.921Z,1014.34
2018-05-11T15:51:49.496Z,1014.37
2018-05-11T15:52:30.068Z,1014.34
2018-05-11T15:53:10.639Z,1014.31
2018-05-11T15:53:51.185Z,1014.31
2018-05-11T15:54:31.776Z,1014.34
2018-05-11T15:55:12.385Z,1014.34
2018-05-11T15:55:52.969Z,1014.29
2018-05-11T15:56:33.557Z,1014.28
2018-05-11T15:57:14.098Z,1014.31
2018-05-11T15:57:54.663Z,1014.32
2018-05-11T15:58:35.252Z,1014.32
2018-05-11T15:59:15.815Z,1014.31
2018-05-11T15:59:56.406Z,1014.3
2018-05-11T16:00:36.975Z,1014.31
2018-05-11T16:01:17.543Z,1014.29
2018-05-11T16:01:58.099Z,1014.3
2018-05-11T16:02:38.658Z,1014.3
2018-05-11T16:03:19.227Z,1014.32
2018-05-11T16:03:59.789Z,1014.35
2018-05-11T16:04:40.361Z,1014.3
2018-05-11T16:05:20.925Z,1014.33
2018-05-11T16:06:01.479Z,1014.31
2018-05-11T16:06:42.067Z,1014.35
2018-05-11T16:07:22.610Z,1014.31
2018-05-11T16:08:03.172Z,1014.3
2018-05-11T16:08:43.746Z,1014.31
2018-05-11T16:09:24.310Z,1014.34
2018-05-11T16:10:04.859Z,1014.28
2018-05-11T16:10:45.451Z,1014.3
2018-05-11T16:11:26.067Z,1014.28
2018-05-11T16:12:06.625Z,1014.32
2018-05-11T16:12:47.241Z,1014.32
2018-05-11T16:13:27.773Z,1014.24
2018-05-11T16:14:08.340Z,1014.26
2018-05-11T16:14:48.923Z,1014.28
2018-05-11T16:15:29.479Z,1014.28
2018-05-11T16:16:10.068Z,1014.26
2018-05-11T16:16:50.620Z,1014.27
2018-05-11T16:17:31.191Z,1014.23
2018-05-11T16:18:11.763Z,1014.27
2018-05-11T16:18:52.340Z,1014.24
2018-05-11T16:19:32.901Z,1014.26
2018-05-11T16:20:13.497Z,1014.23
2018-05-11T16:20:54.017Z,1014.27
2018-05-11T16:21:34.667Z,1014.26
2018-05-11T16:22:15.233Z,1014.27
2018-05-11T16:22:55.792Z,1014.25
2018-05-11T16:23:36.360Z,1014.27
2018-05-11T16:24:16.930Z,1014.29
2018-05-11T16:24:57.490Z,1014.24
2018-05-11T16:25:38.043Z,1014.22
2018-05-11T16:26:18.601Z,1014.22
2018-05-11T16:26:59.186Z,1014.24
2018-05-11T16:27:39.755Z,1014.25
2018-05-11T16:28:20.406Z,1014.22
2018-05-11T16:29:00.875Z,1014.25
2018-05-11T16:29:41.435Z,1014.22
2018-05-11T16:30:21.993Z,1014.21
2018-05-11T16:31:02.553Z,1014.26
2018-05-11T16:31:43.113Z,1014.26
2018-05-11T16:32:23.670Z,1014.26
2018-05-11T16:33:04.229Z,1014.2
2018-05-11T16:33:44.795Z,1014.23
2018-05-11T16:34:25.354Z,1014.26
2018-05-11T16:35:05.938Z,1014.26
2018-05-11T16:35:46.472Z,1014.22
2018-05-11T16:36:27.079Z,1014.21
2018-05-11T16:37:07.651Z,1014.25
2018-05-11T16:37:48.168Z,1014.24
2018-05-11T16:38:28.739Z,1014.21
2018-05-11T16:39:09.305Z,1014.25
2018-05-11T16:39:49.873Z,1014.25
2018-05-11T16:40:30.545Z,1014.28
2018-05-11T16:41:11.012Z,1014.27
2018-05-11T16:41:51.599Z,1014.26
2018-05-11T16:42:32.141Z,1014.25
2018-05-11T16:43:12.696Z,1014.23
2018-05-11T16:43:53.232Z,1014.25
2018-05-11T16:44:33.789Z,1014.27
2018-05-11T16:45:14.338Z,1014.23
2018-05-11T16:45:54.915Z,1014.19
2018-05-11T16:46:35.486Z,1014.23
2018-05-11T16:47:16.070Z,1014.25
2018-05-11T16:47:56.672Z,1014.22